Time;durP1;ratioP1;P1;durP2;ratioP2;P2;SDS_P1;SDS_P2;PMS_P1;PMS_P2;Temp;Humidity;BMP_temperature;BMP_pressure;BME280_temperature;BME280_humidity;BME280_pressure;Samples;Min_cycle;Max_cycle;Signal;HPM_P1;HPM_P2
2021/05/10 00:00:50;;;;;;;12.23;2.93;;;;;;;11.39;58.46;99865.50;126206;1101;22770;-60
2021/05/10 00:03:22;;;;;;;13.93;2.83;;;;;;;11.32;58.24;99868.72;126217;1096;27161;-60
2021/05/10 00:05:53;;;;;;;10.90;2.90;;;;;;;11.29;58.46;99858.55;126289;1101;23141;-60
2021/05/10 00:08:25;;;;;;;9.63;2.50;;;;;;;11.24;58.50;99857.23;126180;1102;22797;-60
2021/05/10 00:10:55;;;;;;;10.23;2.17;;;;;;;11.19;58.53;99863.52;126203;1101;22728;-59
2021/05/10 00:13:27;;;;;;;12.85;2.65;;;;;;;11.14;58.86;99867.03;126065;1101;23139;-59
2021/05/10 00:15:57;;;;;;;9.63;2.50;;;;;;;11.02;58.85;99864.61;126124;1101;22745;-59
2021/05/10 00:18:27;;;;;;;11.15;2.78;;;;;;;10.93;59.13;99861.95;126227;1101;22752;-60
2021/05/10 00:20:57;;;;;;;9.90;2.83;;;;;;;10.86;59.28;99859.61;126119;1104;22755;-60
2021/05/10 00:23:27;;;;;;;12.43;2.40;;;;;;;10.85;59.15;99856.03;126199;1101;22731;-58
2021/05/10 00:25:57;;;;;;;16.65;2.58;;;;;;;10.83;59.20;99852.20;126071;1096;27262;-58
2021/05/10 00:28:26;;;;;;;10.07;2.60;;;;;;;10.77;59.44;99852.14;126302;1101;22767;-60
2021/05/10 00:30:56;;;;;;;14.10;2.40;;;;;;;10.68;59.60;99852.27;126026;1101;22926;-59
2021/05/10 00:33:26;;;;;;;12.08;2.73;;;;;;;10.63;59.69;99852.21;126144;1101;22734;-59
2021/05/10 00:35:56;;;;;;;11.37;3.00;;;;;;;10.58;59.72;99848.09;126028;1101;22748;-59
2021/05/10 00:38:26;;;;;;;11.65;2.98;;;;;;;10.54;59.67;99844.73;126191;1101;23449;-60
2021/05/10 00:40:59;;;;;;;13.10;2.63;;;;;;;10.52;59.95;99852.84;126201;1101;22762;-59
2021/05/10 00:43:29;;;;;;;10.60;2.47;;;;;;;10.44;60.21;99857.30;126138;1101;22821;-59
2021/05/10 00:45:59;;;;;;;12.15;2.95;;;;;;;10.34;60.14;99856.67;126365;1101;22759;-59
2021/05/10 00:48:28;;;;;;;11.35;2.88;;;;;;;10.25;60.30;99869.97;126521;1097;27100;-60
2021/05/10 00:50:58;;;;;;;13.45;2.78;;;;;;;10.14;60.88;99864.25;126195;1096;25492;-60
2021/05/10 00:53:29;;;;;;;12.50;2.47;;;;;;;10.05;60.63;99865.09;126275;1101;22752;-60
2021/05/10 00:55:57;;;;;;;;;;;;;;;10.01;60.60;99863.76;126284;1101;22904;-60
2021/05/10 00:58:28;;;;;;;12.77;2.47;;;;;;;9.96;60.65;99854.05;126276;1096;21513;-60
2021/05/10 01:00:57;;;;;;;11.10;2.90;;;;;;;9.96;60.67;99858.85;126352;1101;22748;-59
2021/05/10 01:03:29;;;;;;;11.20;2.50;;;;;;;9.88;60.77;99857.72;126179;1096;26256;-60
2021/05/10 01:05:58;;;;;;;11.93;2.70;;;;;;;9.83;61.02;99861.20;126117;1096;26495;-60
2021/05/10 01:08:28;;;;;;;15.18;3.38;;;;;;;9.82;60.89;99854.85;126162;1101;23225;-59
2021/05/10 01:10:59;;;;;;;11.58;3.00;;;;;;;9.77;60.97;99859.08;126217;1096;26204;-60
2021/05/10 01:13:30;;;;;;;11.63;2.53;;;;;;;9.71;61.21;99852.65;126264;1096;22901;-59
2021/05/10 01:16:00;;;;;;;13.50;2.70;;;;;;;9.63;61.21;99859.09;126496;1101;22737;-60
2021/05/10 01:18:31;;;;;;;13.43;3.27;;;;;;;9.59;61.37;99861.31;126196;1101;22759;-59
2021/05/10 01:21:02;;;;;;;13.03;3.43;;;;;;;9.52;61.47;99865.25;126042;1103;22738;-58
2021/05/10 01:23:33;;;;;;;9.87;2.63;;;;;;;9.49;61.59;99851.52;126169;1096;22751;-59
2021/05/10 01:26:03;;;;;;;13.10;2.80;;;;;;;9.45;61.61;99848.16;126182;1096;22748;-59
2021/05/10 01:28:33;;;;;;;11.15;2.95;;;;;;;9.43;61.58;99839.52;126125;1096;27629;-60
2021/05/10 01:31:03;;;;;;;12.70;2.97;;;;;;;9.38;61.55;99837.39;126594;1101;22780;-59
2021/05/10 01:33:32;;;;;;;;;;;;;;;9.32;61.69;99836.52;126200;1101;22752;-60
2021/05/10 01:36:02;;;;;;;10.93;2.77;;;;;;;9.23;61.89;99837.38;126120;1096;21474;-59
2021/05/10 01:38:32;;;;;;;14.88;3.30;;;;;;;9.18;62.13;99828.94;126121;1104;22735;-58
2021/05/10 01:41:02;;;;;;;13.55;3.05;;;;;;;9.12;62.16;99836.42;126311;1101;22745;-59
2021/05/10 01:43:32;;;;;;;13.23;3.23;;;;;;;9.07;62.35;99840.64;126155;1096;22749;-58
2021/05/10 01:46:01;;;;;;;;;;;;;;;8.98;62.46;99840.71;126448;1101;22737;-59
2021/05/10 01:48:31;;;;;;;11.30;3.15;;;;;;;8.90;62.64;99837.55;126540;1101;23483;-58
2021/05/10 01:51:01;;;;;;;12.70;2.83;;;;;;;8.87;62.73;99835.73;126255;1101;22976;-59
2021/05/10 01:53:33;;;;;;;14.13;4.10;;;;;;;8.80;62.79;99836.09;126158;1101;22752;-60
2021/05/10 01:56:03;;;;;;;11.87;3.17;;;;;;;8.77;62.69;99830.72;126279;1102;22838;-58
2021/05/10 01:58:33;;;;;;;11.25;3.10;;;;;;;8.80;62.86;99832.53;126165;1104;22861;-60
2021/05/10 02:01:03;;;;;;;13.83;3.98;;;;;;;8.78;62.78;99823.88;126146;1102;22822;-59
2021/05/10 02:03:33;;;;;;;14.67;3.07;;;;;;;8.77;62.84;99827.93;126108;1101;22735;-59
2021/05/10 02:06:04;;;;;;;11.73;3.67;;;;;;;8.77;62.93;99830.72;126117;1101;22751;-58
2021/05/10 02:08:34;;;;;;;14.20;3.10;;;;;;;8.77;63.07;99825.89;126307;1101;22872;-60
2021/05/10 02:11:04;;;;;;;12.43;2.90;;;;;;;8.81;63.03;99818.13;126319;1101;22728;-59
2021/05/10 02:13:34;;;;;;;10.63;2.70;;;;;;;8.86;62.94;99825.05;125961;1101;22881;-61
2021/05/10 02:16:05;;;;;;;12.10;2.87;;;;;;;8.91;62.60;99824.40;126241;1102;22741;-61
2021/05/10 02:18:37;;;;;;;10.40;2.27;;;;;;;8.94;62.93;99813.06;127179;1101;22995;-61
2021/05/10 02:21:07;;;;;;;10.43;2.50;;;;;;;8.98;62.75;99823.27;127368;1101;23675;-61
2021/05/10 02:23:38;;;;;;;8.23;2.03;;;;;;;9.01;62.84;99825.08;126751;1101;24131;-58
2021/05/10 02:26:07;;;;;;;;;;;;;;;9.02;62.68;99824.62;125892;1101;22725;-59
2021/05/10 02:28:38;;;;;;;6.07;1.70;;;;;;;9.05;62.70;99831.22;125900;1101;21616;-61
2021/05/10 02:31:08;;;;;;;7.33;1.70;;;;;;;9.06;62.73;99839.12;125745;1102;22787;-60
2021/05/10 02:33:38;;;;;;;9.60;1.90;;;;;;;9.08;62.68;99835.84;125723;1096;24560;-59
2021/05/10 02:36:09;;;;;;;7.53;1.95;;;;;;;9.11;62.68;99820.95;125688;1101;22761;-59
2021/05/10 02:38:39;;;;;;;11.10;2.40;;;;;;;9.12;62.65;99822.50;125813;1101;22752;-60
2021/05/10 02:41:10;;;;;;;8.83;1.90;;;;;;;9.12;62.62;99837.20;125816;1101;24285;-59
2021/05/10 02:43:40;;;;;;;5.10;1.45;;;;;;;9.14;62.53;99831.92;126254;1096;22865;-59
2021/05/10 02:46:11;;;;;;;8.70;1.95;;;;;;;9.16;62.48;99832.21;126316;1096;26228;-59
2021/05/10 02:48:40;;;;;;;8.28;1.60;;;;;;;9.16;62.47;99832.21;126185;1101;22728;-60
2021/05/10 02:51:12;;;;;;;6.90;1.38;;;;;;;9.19;62.36;99827.67;126446;1096;26235;-60
2021/05/10 02:53:42;;;;;;;8.07;1.87;;;;;;;9.20;62.36;99826.44;126311;1102;22756;-60
2021/05/10 02:56:12;;;;;;;10.40;1.33;;;;;;;9.20;62.21;99834.80;126267;1096;22728;-59
2021/05/10 02:58:41;;;;;;;8.23;1.83;;;;;;;9.21;62.25;99828.73;126361;1101;22826;-59
2021/05/10 03:01:12;;;;;;;7.10;1.70;;;;;;;9.24;62.11;99827.02;126324;1096;27246;-59
2021/05/10 03:03:42;;;;;;;6.63;1.53;;;;;;;9.24;62.11;99821.45;126206;1096;22737;-60
2021/05/10 03:06:12;;;;;;;7.43;1.48;;;;;;;9.26;62.16;99827.30;126243;1096;26559;-60
2021/05/10 03:08:42;;;;;;;8.37;1.50;;;;;;;9.28;62.21;99833.16;126256;1096;22915;-60
2021/05/10 03:11:12;;;;;;;7.78;1.40;;;;;;;9.29;61.97;99829.14;126105;1096;26681;-60
2021/05/10 03:13:42;;;;;;;10.38;1.65;;;;;;;9.30;61.92;99836.23;126239;1101;22817;-60
2021/05/10 03:16:11;;;;;;;6.73;1.30;;;;;;;9.31;61.85;99837.78;126314;1101;22772;-60
2021/05/10 03:18:41;;;;;;;3.95;0.93;;;;;;;9.30;61.84;99842.58;126104;1101;25095;-59
2021/05/10 03:21:11;;;;;;;7.18;1.60;;;;;;;9.30;61.76;99830.66;126365;1101;22710;-59
2021/05/10 03:23:41;;;;;;;4.70;1.27;;;;;;;9.32;61.84;99833.73;126312;1101;22783;-60
2021/05/10 03:26:11;;;;;;;4.58;1.35;;;;;;;9.31;61.85;99835.75;126096;1096;27171;-60
2021/05/10 03:28:41;;;;;;;8.85;1.30;;;;;;;9.32;61.73;99837.30;126117;1097;25912;-60
2021/05/10 03:31:11;;;;;;;5.93;1.53;;;;;;;9.32;61.67;99836.52;126151;1101;22740;-61
2021/05/10 03:33:41;;;;;;;5.78;1.23;;;;;;;9.33;61.62;99835.29;126113;1101;22796;-58
2021/05/10 03:36:11;;;;;;;4.98;1.08;;;;;;;9.34;61.50;99834.80;126251;1101;22729;-60
2021/05/10 03:38:40;;;;;;;;;;;;;;;9.36;61.55;99837.88;126146;1104;22768;-60
2021/05/10 03:41:10;;;;;;;3.67;1.07;;;;;;;9.38;61.67;99829.80;126187;1101;21483;-59
2021/05/10 03:43:39;;;;;;;5.20;0.95;;;;;;;9.42;61.42;99843.53;126208;1101;22801;-59
2021/05/10 03:46:09;;;;;;;5.35;1.20;;;;;;;9.44;61.57;99841.81;126120;1102;24330;-59
2021/05/10 03:48:39;;;;;;;3.78;1.20;;;;;;;9.49;61.61;99832.02;126198;1101;22731;-59
2021/05/10 03:51:09;;;;;;;3.75;0.90;;;;;;;9.54;61.67;99834.11;126051;1101;22755;-61
2021/05/10 03:53:39;;;;;;;5.08;1.00;;;;;;;9.59;61.74;99839.02;126124;1096;22731;-60
2021/05/10 03:56:10;;;;;;;10.80;1.18;;;;;;;9.63;61.67;99840.36;126052;1102;22728;-60
2021/05/10 03:58:39;;;;;;;5.53;1.20;;;;;;;9.69;61.76;99837.66;126198;1101;22749;-61
2021/05/10 04:01:11;;;;;;;4.25;0.93;;;;;;;9.74;61.74;99826.58;126265;1101;24435;-59
2021/05/10 04:03:45;;;;;;;5.90;1.20;;;;;;;9.84;61.76;99830.05;126232;1101;22745;-59
2021/05/10 04:06:28;;;;;;;8.03;1.23;;;;;;;9.91;61.73;99840.03;126266;1101;22709;-59
2021/05/10 04:09:26;;;;;;;7.20;1.00;;;;;;;9.98;61.81;99837.60;126145;1101;23241;-59
2021/05/10 04:14:44;;;;;;;7.03;1.03;;;;;;;10.17;61.59;99836.14;126195;1102;22728;-60
2021/05/10 04:17:13;;;;;;;5.98;1.00;;;;;;;10.27;61.46;99833.98;126195;1096;27093;-59
2021/05/10 04:19:43;;;;;;;4.10;1.00;;;;;;;10.36;61.50;99822.70;126336;1101;22753;-59
2021/05/10 04:22:13;;;;;;;5.70;0.88;;;;;;;10.47;61.47;99825.61;126463;1101;22745;-60
2021/05/10 04:24:43;;;;;;;5.75;1.20;;;;;;;10.56;61.44;99817.88;126129;1102;24518;-60
2021/05/10 04:27:12;;;;;;;7.20;1.00;;;;;;;10.66;61.46;99820.52;126099;1101;22748;-60
2021/05/10 04:29:42;;;;;;;8.28;1.10;;;;;;;10.74;61.22;99810.48;126193;1097;22709;-59
2021/05/10 04:32:12;;;;;;;6.60;0.90;;;;;;;10.86;61.05;99812.13;126166;1096;26229;-60
2021/05/10 04:34:42;;;;;;;10.53;1.37;;;;;;;10.94;61.05;99814.00;126087;1102;23030;-60
2021/05/10 04:37:11;;;;;;;7.90;1.08;;;;;;;11.04;60.70;99806.22;126380;1101;22709;-58
2021/05/10 04:39:41;;;;;;;5.73;0.90;;;;;;;11.17;60.61;99812.20;126481;1101;22731;-59
2021/05/10 04:42:12;;;;;;;5.23;1.10;;;;;;;11.32;60.52;99804.45;126262;1101;22709;-59
2021/05/10 04:44:42;;;;;;;4.23;0.90;;;;;;;11.50;60.17;99806.91;126334;1097;25815;-61
2021/05/10 04:47:12;;;;;;;6.80;0.78;;;;;;;11.66;59.32;99811.89;126371;1096;26225;-60
2021/05/10 04:49:42;;;;;;;5.77;0.80;;;;;;;11.84;59.29;99810.73;126526;1101;22815;-61
2021/05/10 04:52:13;;;;;;;3.75;0.90;;;;;;;11.99;58.75;99806.53;126237;1096;26321;-60
2021/05/10 04:54:43;;;;;;;4.33;0.70;;;;;;;12.16;58.52;99804.61;126417;1101;22795;-60
2021/05/10 04:57:14;;;;;;;3.70;0.80;;;;;;;12.31;58.23;99810.00;126293;1096;26533;-59
2021/05/10 04:59:45;;;;;;;4.60;0.80;;;;;;;12.46;58.01;99807.79;126110;1101;22813;-58
2021/05/10 05:02:15;;;;;;;3.65;0.80;;;;;;;12.61;57.73;99808.38;126101;1101;22701;-59
2021/05/10 05:04:45;;;;;;;4.18;0.93;;;;;;;12.76;57.88;99806.14;125984;1101;22756;-67
2021/05/10 05:07:15;;;;;;;3.53;0.80;;;;;;;12.94;57.52;99804.91;126499;1102;22697;-59
2021/05/10 05:09:46;;;;;;;4.63;0.70;;;;;;;13.09;57.35;99801.91;126405;1101;22748;-58
2021/05/10 05:12:16;;;;;;;4.10;0.70;;;;;;;13.27;56.98;99807.02;126221;1104;24562;-59
2021/05/10 05:14:45;;;;;;;;;;;;;;;13.44;56.54;99808.58;127858;1096;25719;-59
2021/05/10 05:17:15;;;;;;;4.33;0.80;;;;;;;13.62;55.83;99802.45;126443;1097;23092;-59
2021/05/10 05:19:44;;;;;;;;;;;;;;;13.82;54.98;99804.24;126271;1101;22759;-59
2021/05/10 05:22:14;;;;;;;9.57;1.40;;;;;;;13.99;54.46;99802.16;127325;1101;21898;-59
2021/05/10 05:24:45;;;;;;;6.00;0.93;;;;;;;14.15;54.34;99804.16;126478;1101;22746;-59
2021/05/10 05:27:15;;;;;;;8.83;1.27;;;;;;;14.32;54.28;99796.48;126881;1096;26874;-59
2021/05/10 05:29:45;;;;;;;4.98;0.80;;;;;;;14.46;53.56;99789.05;126457;1101;22741;-61
2021/05/10 05:32:15;;;;;;;5.37;0.93;;;;;;;14.60;53.59;99787.97;126362;1097;27154;-59
2021/05/10 05:34:45;;;;;;;5.08;0.80;;;;;;;14.74;53.19;99786.09;126258;1101;23450;-59
2021/05/10 05:37:15;;;;;;;5.98;0.95;;;;;;;14.85;52.99;99786.05;126461;1101;22745;-58
2021/05/10 05:39:45;;;;;;;4.30;0.70;;;;;;;14.90;52.89;99788.05;126365;1101;22716;-61
2021/05/10 05:42:15;;;;;;;7.27;0.70;;;;;;;14.94;53.14;99794.19;126570;1097;22744;-59
2021/05/10 05:44:48;;;;;;;3.30;0.70;;;;;;;15.05;52.57;99794.88;126317;1102;23427;-58
2021/05/10 05:47:24;;;;;;;5.37;0.80;;;;;;;15.17;52.28;99790.70;126563;1101;22773;-58
2021/05/10 05:49:54;;;;;;;5.40;0.77;;;;;;;15.30;51.68;99795.72;126492;1101;22753;-60
2021/05/10 05:52:24;;;;;;;;;;;;;;;15.41;51.37;99796.39;127398;1101;22755;-61
2021/05/10 05:54:55;;;;;;;6.25;1.45;;;;;;;15.51;50.80;99791.25;126267;1104;21552;-60
2021/05/10 05:59:57;;;;;;;5.55;0.80;;;;;;;15.73;49.96;99785.42;126090;1093;24374;-62
2021/05/10 06:02:27;;;;;;;4.15;0.70;;;;;;;15.82;50.25;99785.09;125910;1101;22735;-61
2021/05/10 06:04:57;;;;;;;3.18;0.68;;;;;;;15.93;49.70;99782.15;125815;1096;22897;-62
2021/05/10 06:07:27;;;;;;;6.03;1.65;;;;;;;16.04;49.17;99792.54;125825;1101;22728;-61
2021/05/10 06:09:57;;;;;;;3.90;0.70;;;;;;;16.14;49.33;99783.22;125627;1097;22777;-61
2021/05/10 06:12:30;;;;;;;4.38;0.90;;;;;;;16.23;49.09;99778.52;125727;1101;22800;-61
2021/05/10 06:15:01;;;;;;;5.13;0.80;;;;;;;16.31;48.88;99782.26;125893;1097;22891;-61
2021/05/10 06:17:31;;;;;;;4.55;0.75;;;;;;;16.39;48.94;99777.58;126073;1101;23213;-62
2021/05/10 06:20:00;;;;;;;;;;;;;;;16.46;48.75;99777.73;125734;1101;22747;-62
2021/05/10 06:22:30;;;;;;;2.63;0.70;;;;;;;16.55;48.36;99771.74;125844;1096;24246;-61
2021/05/10 06:25:00;;;;;;;5.33;0.85;;;;;;;16.66;47.79;99762.38;125707;1097;27138;-62
2021/05/10 06:27:31;;;;;;;4.70;0.90;;;;;;;16.74;47.97;99763.30;125947;1101;22752;-62
2021/05/10 06:30:01;;;;;;;3.50;0.60;;;;;;;16.81;48.05;99762.70;126062;1101;23462;-62
2021/05/10 06:32:32;;;;;;;4.85;0.70;;;;;;;16.88;47.14;99760.02;125932;1101;22755;-62
2021/05/10 06:35:02;;;;;;;4.50;0.60;;;;;;;16.97;47.13;99759.64;125880;1096;22735;-62
2021/05/10 06:37:31;;;;;;;;;;;;;;;17.05;46.37;99756.22;125899;1101;22731;-62
2021/05/10 06:40:01;;;;;;;8.00;1.30;;;;;;;17.14;46.62;99769.91;125950;1101;21496;-62
2021/05/10 06:42:33;;;;;;;5.60;1.20;;;;;;;17.22;47.15;99765.94;125699;1097;27358;-62
2021/05/10 06:45:03;;;;;;;;;;;;;;;17.29;46.02;99768.14;125948;1101;22864;-62
2021/05/10 06:47:35;;;;;;;7.95;0.70;;;;;;;17.38;46.44;99762.08;125889;1101;21468;-62
2021/05/10 06:50:07;;;;;;;3.55;0.60;;;;;;;17.46;45.83;99765.05;125807;1096;22725;-62
2021/05/10 06:52:38;;;;;;;3.57;0.70;;;;;;;17.56;45.61;99769.02;125768;1101;22809;-62
2021/05/10 06:55:10;;;;;;;4.43;0.70;;;;;;;17.64;45.24;99764.26;125761;1096;25947;-62
2021/05/10 06:57:40;;;;;;;6.25;0.70;;;;;;;17.73;44.97;99761.77;125745;1096;26276;-63
2021/05/10 07:00:13;;;;;;;6.25;0.70;;;;;;;17.78;45.11;99758.10;125717;1096;22758;-62
2021/05/10 07:02:43;;;;;;;5.97;0.60;;;;;;;17.83;44.88;99748.02;125643;1101;22825;-62
2021/05/10 07:05:12;;;;;;;;;;;;;;;17.90;44.86;99747.35;125761;1102;22810;-62
2021/05/10 07:07:43;;;;;;;5.77;0.60;;;;;;;18.02;45.00;99736.63;125715;1097;21527;-63
2021/05/10 07:10:14;;;;;;;6.83;0.73;;;;;;;18.09;44.63;99721.83;125737;1102;22741;-63
2021/05/10 07:12:45;;;;;;;6.50;0.70;;;;;;;18.17;44.21;99728.34;125772;1101;22741;-63
2021/05/10 07:15:15;;;;;;;7.00;0.60;;;;;;;18.21;44.05;99709.77;125765;1094;26336;-63
2021/05/10 07:17:45;;;;;;;11.83;1.15;;;;;;;18.27;43.87;99716.06;125621;1096;22727;-63
2021/05/10 07:20:16;;;;;;;5.03;0.90;;;;;;;18.36;43.78;99724.11;126012;1101;22736;-62
2021/05/10 07:22:49;;;;;;;7.90;0.70;;;;;;;18.47;43.37;99731.63;126148;1101;22755;-62
2021/05/10 07:25:20;;;;;;;9.60;1.00;;;;;;;18.58;43.33;99736.28;125837;1101;22740;-62
2021/05/10 07:27:52;;;;;;;10.60;1.00;;;;;;;18.66;43.42;99737.13;125901;1101;22829;-62
2021/05/10 07:30:23;;;;;;;21.53;1.77;;;;;;;18.75;43.32;99731.77;125868;1096;24408;-62
2021/05/10 07:32:54;;;;;;;14.85;1.30;;;;;;;18.86;43.27;99750.56;126017;1101;22825;-62
2021/05/10 07:35:24;;;;;;;20.65;1.15;;;;;;;18.95;43.18;99739.56;125761;1097;26224;-62
2021/05/10 07:37:55;;;;;;;11.75;0.70;;;;;;;19.06;42.65;99741.34;126052;1101;22820;-63
2021/05/10 07:40:28;;;;;;;9.80;0.60;;;;;;;19.16;42.36;99736.77;125677;1097;26267;-62
2021/05/10 07:42:58;;;;;;;11.10;0.90;;;;;;;19.24;42.83;99735.50;125695;1102;22831;-62
2021/05/10 07:45:29;;;;;;;4.60;0.50;;;;;;;19.34;41.64;99716.02;125574;1101;22755;-63
2021/05/10 07:48:00;;;;;;;3.70;0.60;;;;;;;19.45;41.95;99729.14;125647;1101;22952;-63
2021/05/10 07:50:31;;;;;;;5.50;0.50;;;;;;;19.53;42.08;99736.39;125647;1097;22816;-63
2021/05/10 07:53:02;;;;;;;4.30;0.50;;;;;;;19.60;41.94;99741.34;125572;1097;27141;-63
2021/05/10 07:55:33;;;;;;;6.85;0.70;;;;;;;19.70;42.44;99739.53;125673;1097;27393;-63
2021/05/10 07:58:07;;;;;;;10.00;1.10;;;;;;;19.78;41.83;99733.94;125756;1102;22913;-63
2021/05/10 08:00:40;;;;;;;7.05;1.20;;;;;;;19.89;41.60;99736.45;125810;1097;22818;-63
2021/05/10 08:03:12;;;;;;;5.45;0.70;;;;;;;20.00;42.18;99739.00;125795;1097;22751;-63
2021/05/10 08:05:44;;;;;;;4.73;0.57;;;;;;;20.08;42.11;99746.23;125684;1096;22814;-63
2021/05/10 08:08:17;;;;;;;3.65;0.60;;;;;;;20.16;41.32;99732.11;125756;1101;22713;-62
2021/05/10 08:10:47;;;;;;;3.50;0.60;;;;;;;20.27;41.92;99736.73;125616;1101;22988;-63
2021/05/10 08:13:19;;;;;;;9.17;0.63;;;;;;;20.35;41.66;99732.63;125931;1101;23022;-63
2021/05/10 08:15:51;;;;;;;5.15;0.60;;;;;;;20.47;41.42;99741.56;125545;1103;22964;-63
2021/05/10 08:18:23;;;;;;;2.47;0.40;;;;;;;20.57;41.56;99736.88;125674;1101;23627;-63
2021/05/10 08:20:57;;;;;;;2.40;0.57;;;;;;;20.64;41.58;99739.00;125719;1101;23282;-63
2021/05/10 08:23:28;;;;;;;4.40;0.70;;;;;;;20.73;41.62;99738.48;125853;1101;22754;-63
2021/05/10 08:26:18;;;;;;;4.90;0.60;;;;;;;20.83;41.69;99734.55;125616;1101;22732;-63
2021/05/10 08:28:48;;;;;;;4.30;0.65;;;;;;;20.93;41.79;99723.41;125972;1101;22806;-62
2021/05/10 08:31:20;;;;;;;6.50;0.80;;;;;;;21.05;41.81;99724.59;125818;1096;23024;-62
2021/05/10 08:33:52;;;;;;;2.83;0.67;;;;;;;21.17;41.22;99716.50;125667;1101;22728;-62
2021/05/10 08:36:23;;;;;;;1.43;0.30;;;;;;;21.26;41.33;99713.84;125804;1101;22810;-62
2021/05/10 08:38:55;;;;;;;4.70;0.80;;;;;;;21.36;41.13;99714.03;125889;1096;22810;-62
2021/05/10 08:41:25;;;;;;;6.50;0.60;;;;;;;21.45;41.38;99722.77;125874;1096;25948;-62
2021/05/10 08:43:59;;;;;;;3.25;0.53;;;;;;;21.56;41.68;99727.32;125699;1101;22756;-62
2021/05/10 08:46:29;;;;;;;5.58;0.90;;;;;;;21.64;41.50;99716.72;125820;1101;22782;-62
2021/05/10 08:48:59;;;;;;;5.45;0.65;;;;;;;21.77;41.65;99707.23;125926;1097;27467;-62
2021/05/10 08:51:30;;;;;;;4.00;0.60;;;;;;;21.93;41.08;99689.63;126122;1101;24386;-62
2021/05/10 08:54:02;;;;;;;5.05;0.50;;;;;;;22.03;40.88;99698.31;125880;1096;26403;-62
2021/05/10 08:56:32;;;;;;;4.00;0.50;;;;;;;22.15;40.74;99702.26;125755;1102;22911;-62
2021/05/10 08:59:03;;;;;;;5.83;0.70;;;;;;;22.18;40.40;99701.13;125825;1101;22820;-63
2021/05/10 09:01:48;;;;;;;5.37;0.40;;;;;;;22.23;39.91;99695.23;125847;1101;22865;-62
2021/05/10 09:04:18;;;;;;;10.65;0.70;;;;;;;22.26;39.44;99704.70;126028;1097;22897;-62
2021/05/10 09:06:50;;;;;;;4.90;0.70;;;;;;;22.30;39.63;99702.98;125800;1101;22759;-62
2021/05/10 09:09:21;;;;;;;8.13;0.83;;;;;;;22.35;40.28;99699.16;125689;1104;24387;-62
2021/05/10 09:11:57;;;;;;;5.73;0.60;;;;;;;22.43;40.11;99707.66;125684;1104;24540;-62
2021/05/10 09:14:35;;;;;;;2.00;0.50;;;;;;;22.51;40.08;99711.98;125815;1097;22904;-62
2021/05/10 09:17:06;;;;;;;2.90;0.58;;;;;;;22.63;39.87;99692.45;125789;1101;22746;-62
2021/05/10 09:19:49;;;;;;;4.03;0.60;;;;;;;22.72;39.75;99696.77;125868;1101;22878;-62
2021/05/10 09:22:20;;;;;;;5.28;0.73;;;;;;;22.79;39.54;99690.27;125938;1096;22851;-62
2021/05/10 09:24:52;;;;;;;4.05;0.65;;;;;;;22.89;40.01;99700.46;125840;1096;26082;-62
2021/05/10 09:27:30;;;;;;;7.00;0.40;;;;;;;23.00;39.75;99702.88;125690;1101;22747;-62
2021/05/10 09:30:25;;;;;;;4.60;0.63;;;;;;;23.07;39.71;99690.66;125567;1097;22754;-62
2021/05/10 09:32:57;;;;;;;3.13;0.60;;;;;;;23.18;39.81;99678.06;125743;1104;25800;-62
2021/05/10 09:35:30;;;;;;;4.50;0.55;;;;;;;23.22;39.60;99682.03;125458;1104;23359;-62
2021/05/10 09:38:06;;;;;;;4.93;0.60;;;;;;;23.27;39.65;99685.98;125814;1104;22818;-62
2021/05/10 09:40:49;;;;;;;6.05;0.60;;;;;;;23.35;39.84;99683.09;125563;1099;25896;-62
2021/05/10 09:43:23;;;;;;;3.03;0.53;;;;;;;23.37;39.37;99686.88;125576;1099;26231;-62
2021/05/10 09:45:55;;;;;;;4.53;0.73;;;;;;;23.40;39.20;99680.03;125729;1104;22790;-62
2021/05/10 09:48:28;;;;;;;7.10;0.50;;;;;;;23.46;39.56;99689.10;125550;1104;22822;-62
2021/05/10 09:51:01;;;;;;;2.67;0.50;;;;;;;23.53;39.69;99685.42;125554;1105;22739;-62
2021/05/10 09:53:42;;;;;;;9.70;0.83;;;;;;;23.61;40.21;99688.95;125530;1104;22791;-62
2021/05/10 09:56:29;;;;;;;4.63;0.63;;;;;;;23.76;40.08;99694.52;125504;1100;23476;-62
2021/05/10 09:59:00;;;;;;;6.73;0.53;;;;;;;23.90;39.55;99692.86;125478;1100;27277;-62
2021/05/10 10:01:43;;;;;;;7.28;0.60;;;;;;;24.06;39.58;99704.91;125455;1105;22745;-62
2021/05/10 10:04:14;;;;;;;4.73;0.85;;;;;;;24.25;39.17;99692.92;125542;1104;23105;-62
2021/05/10 10:06:47;;;;;;;2.38;0.53;;;;;;;24.40;39.39;99692.73;125624;1100;24449;-62
2021/05/10 10:09:17;;;;;;;3.93;0.60;;;;;;;24.50;38.84;99685.02;125752;1099;26254;-63
2021/05/10 10:11:47;;;;;;;4.45;0.63;;;;;;;24.56;38.83;99691.22;125765;1101;22761;-62
2021/05/10 10:14:18;;;;;;;8.18;0.65;;;;;;;24.67;38.31;99691.44;125533;1097;22827;-63
2021/05/10 10:16:48;;;;;;;7.88;0.70;;;;;;;24.75;37.94;99694.97;125799;1101;22823;-63
2021/05/10 10:19:20;;;;;;;4.10;0.80;;;;;;;24.81;37.67;99691.84;125935;1101;22880;-63
2021/05/10 10:21:52;;;;;;;4.03;0.40;;;;;;;24.84;37.62;99680.02;125966;1101;24398;-63
2021/05/10 10:24:23;;;;;;;3.53;0.60;;;;;;;24.90;36.97;99682.59;125916;1101;22795;-63
2021/05/10 10:26:56;;;;;;;4.60;0.50;;;;;;;24.94;37.18;99687.86;125791;1096;27625;-63
2021/05/10 10:29:31;;;;;;;5.00;0.50;;;;;;;24.99;38.12;99686.84;125787;1101;22899;-63
2021/05/10 10:32:03;;;;;;;4.35;0.60;;;;;;;25.07;37.25;99684.63;125879;1101;22758;-63
2021/05/10 10:34:40;;;;;;;4.60;0.55;;;;;;;25.16;37.29;99687.52;125969;1101;22849;-63
2021/05/10 10:37:13;;;;;;;4.23;0.50;;;;;;;25.24;37.24;99699.62;125908;1096;25966;-63
2021/05/10 10:39:52;;;;;;;5.68;0.43;;;;;;;25.32;35.88;99705.97;125766;1101;24297;-63
2021/05/10 10:42:30;;;;;;;6.58;0.60;;;;;;;25.31;34.96;99704.44;125580;1101;22740;-63
2021/05/10 10:45:01;;;;;;;3.67;0.50;;;;;;;25.30;35.45;99707.91;125759;1101;24701;-63
2021/05/10 10:47:44;;;;;;;3.95;0.50;;;;;;;25.28;35.70;99696.31;125903;1096;25960;-63
2021/05/10 10:50:16;;;;;;;2.38;0.43;;;;;;;25.24;34.94;99685.33;125973;1101;23451;-63
2021/05/10 10:52:53;;;;;;;3.08;0.55;;;;;;;25.20;35.19;99693.55;125690;1101;22932;-63
2021/05/10 10:55:27;;;;;;;2.88;0.50;;;;;;;25.18;35.66;99696.25;125792;1101;22761;-63
2021/05/10 10:58:21;;;;;;;3.43;0.55;;;;;;;25.21;35.38;99692.22;125658;1101;22813;-63
2021/05/10 11:01:06;;;;;;;4.00;0.58;;;;;;;25.24;35.49;99693.14;125548;1097;27587;-63
2021/05/10 11:03:38;;;;;;;4.63;0.73;;;;;;;25.27;35.27;99692.70;125803;1101;22754;-63
2021/05/10 11:06:10;;;;;;;10.28;1.13;;;;;;;25.29;35.10;99695.72;125841;1101;22980;-63
2021/05/10 11:08:53;;;;;;;5.13;0.50;;;;;;;25.32;35.07;99700.25;125753;1101;22730;-63
2021/05/10 11:11:41;;;;;;;3.78;0.50;;;;;;;25.39;35.33;99692.88;125780;1101;22731;-63
2021/05/10 11:14:18;;;;;;;4.68;0.50;;;;;;;25.43;35.68;99696.11;125901;1101;22765;-63
2021/05/10 11:16:51;;;;;;;2.68;0.60;;;;;;;25.43;34.85;99698.97;125871;1096;27718;-63
2021/05/10 11:19:36;;;;;;;7.07;0.60;;;;;;;25.39;35.16;99704.31;125851;1101;22816;-63
2021/05/10 11:22:38;;;;;;;5.40;0.65;;;;;;;25.38;34.84;99702.82;125682;1101;22816;-63
2021/05/10 11:25:41;;;;;;;4.93;0.65;;;;;;;25.39;35.06;99705.08;125891;1096;26766;-64
2021/05/10 11:28:42;;;;;;;5.23;0.50;;;;;;;25.42;35.07;99701.06;125907;1096;22769;-64
2021/05/10 11:31:15;;;;;;;2.65;0.40;;;;;;;25.42;34.65;99701.06;125686;1101;22753;-63
2021/05/10 11:34:15;;;;;;;5.10;0.50;;;;;;;25.43;34.90;99696.84;125938;1101;24149;-63
2021/05/10 11:36:54;;;;;;;6.63;0.45;;;;;;;25.46;34.39;99689.95;125623;1101;22875;-63
2021/05/10 11:39:27;;;;;;;2.00;0.50;;;;;;;25.54;35.14;99689.81;125610;1096;26215;-64
2021/05/10 11:42:01;;;;;;;4.23;0.70;;;;;;;25.63;34.80;99703.39;125685;1101;22724;-63
2021/05/10 11:44:34;;;;;;;3.83;0.60;;;;;;;25.68;34.76;99705.20;125668;1097;27107;-63
2021/05/10 11:47:06;;;;;;;4.83;0.60;;;;;;;25.74;35.14;99702.07;125734;1096;27172;-63
2021/05/10 11:49:39;;;;;;;3.90;0.53;;;;;;;25.78;34.60;99705.23;125739;1101;24960;-63
2021/05/10 11:52:14;;;;;;;4.30;0.50;;;;;;;25.84;34.99;99697.13;125620;1101;22738;-63
2021/05/10 11:54:45;;;;;;;6.60;0.68;;;;;;;25.88;34.70;99703.16;125846;1101;22788;-63
2021/05/10 11:57:20;;;;;;;5.58;0.60;;;;;;;25.92;34.71;99689.92;125638;1097;22762;-64